Terminal Aerodrome Forecast
Issued by NWS

Current Version | Previous Version | Text Only | Print | Product List | Glossary On
Versions: 1 2 3 4 5 6 7 8 9 10 11 12 13 14
000
FTUS42 KTAE 252300
TAFDHN
TAF
KDHN 252320Z 2600/2624 33005KT P6SM SKC
      TEMPO 2600/2602 5SM BLSA=

USA.gov is the U.S. government's official web portal to all federal, state and local government web resources and services.